sensor_id;sensor_type;location;lat;lon;timestamp;P1;durP1;ratioP1;P2;durP2;ratioP2
41305;SDS011;27051;50.376;19.152;2022-08-25T00:01:44;16.02;;;4.95;;
41305;SDS011;27051;50.376;19.152;2022-08-25T00:04:21;11.40;;;4.87;;
41305;SDS011;27051;50.376;19.152;2022-08-25T00:06:49;14.40;;;4.92;;
41305;SDS011;27051;50.376;19.152;2022-08-25T00:09:17;12.07;;;4.65;;
41305;SDS011;27051;50.376;19.152;2022-08-25T00:11:47;14.90;;;4.62;;
41305;SDS011;27051;50.376;19.152;2022-08-25T00:14:16;20.30;;;5.60;;
41305;SDS011;27051;50.376;19.152;2022-08-25T00:16:48;12.70;;;5.17;;
41305;SDS011;27051;50.376;19.152;2022-08-25T00:19:17;14.07;;;5.20;;
41305;SDS011;27051;50.376;19.152;2022-08-25T00:21:47;15.15;;;4.78;;
41305;SDS011;27051;50.376;19.152;2022-08-25T00:24:15;17.30;;;5.65;;
41305;SDS011;27051;50.376;19.152;2022-08-25T00:26:44;16.97;;;5.22;;
41305;SDS011;27051;50.376;19.152;2022-08-25T00:29:15;16.50;;;4.95;;
41305;SDS011;27051;50.376;19.152;2022-08-25T00:31:43;16.27;;;5.37;;
41305;SDS011;27051;50.376;19.152;2022-08-25T00:34:16;17.48;;;5.37;;
41305;SDS011;27051;50.376;19.152;2022-08-25T00:36:42;17.65;;;5.60;;
41305;SDS011;27051;50.376;19.152;2022-08-25T00:39:10;15.13;;;5.22;;
41305;SDS011;27051;50.376;19.152;2022-08-25T00:41:38;19.02;;;5.75;;
41305;SDS011;27051;50.376;19.152;2022-08-25T00:44:08;14.63;;;5.08;;
41305;SDS011;27051;50.376;19.152;2022-08-25T00:46:38;16.82;;;5.50;;
41305;SDS011;27051;50.376;19.152;2022-08-25T00:49:13;13.90;;;5.50;;
41305;SDS011;27051;50.376;19.152;2022-08-25T00:52:00;15.70;;;5.75;;
41305;SDS011;27051;50.376;19.152;2022-08-25T00:54:37;15.25;;;5.70;;
41305;SDS011;27051;50.376;19.152;2022-08-25T00:57:22;14.70;;;5.45;;
41305;SDS011;27051;50.376;19.152;2022-08-25T00:59:52;13.53;;;5.12;;
41305;SDS011;27051;50.376;19.152;2022-08-25T01:02:19;22.80;;;6.42;;
41305;SDS011;27051;50.376;19.152;2022-08-25T01:04:46;12.15;;;5.10;;
41305;SDS011;27051;50.376;19.152;2022-08-25T01:07:13;15.40;;;5.60;;
41305;SDS011;27051;50.376;19.152;2022-08-25T01:09:42;15.25;;;5.05;;
41305;SDS011;27051;50.376;19.152;2022-08-25T01:12:10;12.18;;;4.90;;
41305;SDS011;27051;50.376;19.152;2022-08-25T01:14:37;17.77;;;5.87;;
41305;SDS011;27051;50.376;19.152;2022-08-25T01:17:04;16.67;;;5.55;;
41305;SDS011;27051;50.376;19.152;2022-08-25T01:19:31;13.98;;;5.10;;
41305;SDS011;27051;50.376;19.152;2022-08-25T01:21:58;17.17;;;4.95;;
41305;SDS011;27051;50.376;19.152;2022-08-25T01:24:34;11.53;;;4.97;;
41305;SDS011;27051;50.376;19.152;2022-08-25T01:27:09;11.70;;;5.15;;
41305;SDS011;27051;50.376;19.152;2022-08-25T01:29:37;16.67;;;5.45;;
41305;SDS011;27051;50.376;19.152;2022-08-25T01:32:05;14.80;;;5.28;;
41305;SDS011;27051;50.376;19.152;2022-08-25T01:37:04;15.00;;;6.10;;
41305;SDS011;27051;50.376;19.152;2022-08-25T01:39:32;13.83;;;6.72;;
41305;SDS011;27051;50.376;19.152;2022-08-25T01:44:42;20.17;;;6.08;;
41305;SDS011;27051;50.376;19.152;2022-08-25T01:47:11;14.30;;;6.33;;
41305;SDS011;27051;50.376;19.152;2022-08-25T01:49:39;13.65;;;5.35;;
41305;SDS011;27051;50.376;19.152;2022-08-25T01:54:55;17.27;;;5.42;;
41305;SDS011;27051;50.376;19.152;2022-08-25T01:57:22;14.15;;;5.55;;
41305;SDS011;27051;50.376;19.152;2022-08-25T01:59:49;15.28;;;5.75;;
41305;SDS011;27051;50.376;19.152;2022-08-25T02:02:16;11.88;;;6.05;;
41305;SDS011;27051;50.376;19.152;2022-08-25T02:04:42;15.15;;;6.05;;
41305;SDS011;27051;50.376;19.152;2022-08-25T02:07:09;18.60;;;6.62;;
41305;SDS011;27051;50.376;19.152;2022-08-25T02:09:36;14.80;;;6.12;;
41305;SDS011;27051;50.376;19.152;2022-08-25T02:12:03;17.25;;;6.47;;
41305;SDS011;27051;50.376;19.152;2022-08-25T02:14:30;21.52;;;6.53;;
41305;SDS011;27051;50.376;19.152;2022-08-25T02:16:57;17.30;;;6.03;;
41305;SDS011;27051;50.376;19.152;2022-08-25T02:19:24;15.63;;;5.92;;
41305;SDS011;27051;50.376;19.152;2022-08-25T02:21:52;15.65;;;7.25;;
41305;SDS011;27051;50.376;19.152;2022-08-25T02:24:19;17.07;;;6.80;;
41305;SDS011;27051;50.376;19.152;2022-08-25T02:26:46;15.95;;;6.60;;
41305;SDS011;27051;50.376;19.152;2022-08-25T02:29:13;14.40;;;6.40;;
41305;SDS011;27051;50.376;19.152;2022-08-25T02:31:40;19.65;;;6.78;;
41305;SDS011;27051;50.376;19.152;2022-08-25T02:34:07;18.82;;;7.17;;
41305;SDS011;27051;50.376;19.152;2022-08-25T02:36:35;16.52;;;6.58;;
41305;SDS011;27051;50.376;19.152;2022-08-25T02:39:04;20.72;;;7.33;;
41305;SDS011;27051;50.376;19.152;2022-08-25T02:41:33;16.12;;;7.00;;
41305;SDS011;27051;50.376;19.152;2022-08-25T02:44:01;17.73;;;6.60;;
41305;SDS011;27051;50.376;19.152;2022-08-25T02:46:30;15.00;;;7.47;;
41305;SDS011;27051;50.376;19.152;2022-08-25T02:48:57;16.65;;;6.92;;
41305;SDS011;27051;50.376;19.152;2022-08-25T02:51:24;12.68;;;6.53;;
41305;SDS011;27051;50.376;19.152;2022-08-25T02:53:52;13.15;;;7.58;;
41305;SDS011;27051;50.376;19.152;2022-08-25T02:56:19;13.20;;;6.83;;
41305;SDS011;27051;50.376;19.152;2022-08-25T02:58:46;11.90;;;6.55;;
41305;SDS011;27051;50.376;19.152;2022-08-25T03:01:13;15.38;;;6.47;;
41305;SDS011;27051;50.376;19.152;2022-08-25T03:03:41;20.15;;;6.87;;
41305;SDS011;27051;50.376;19.152;2022-08-25T03:06:14;15.48;;;7.17;;
41305;SDS011;27051;50.376;19.152;2022-08-25T03:08:45;16.67;;;6.90;;
41305;SDS011;27051;50.376;19.152;2022-08-25T03:11:11;21.37;;;7.03;;
41305;SDS011;27051;50.376;19.152;2022-08-25T03:13:38;15.95;;;7.05;;
41305;SDS011;27051;50.376;19.152;2022-08-25T03:16:05;14.78;;;6.80;;
41305;SDS011;27051;50.376;19.152;2022-08-25T03:18:33;20.10;;;6.67;;
41305;SDS011;27051;50.376;19.152;2022-08-25T03:21:01;21.02;;;7.75;;
41305;SDS011;27051;50.376;19.152;2022-08-25T03:23:29;16.97;;;6.83;;
41305;SDS011;27051;50.376;19.152;2022-08-25T03:25:55;16.55;;;7.22;;
41305;SDS011;27051;50.376;19.152;2022-08-25T03:28:23;17.45;;;6.92;;
41305;SDS011;27051;50.376;19.152;2022-08-25T03:30:50;23.98;;;7.85;;
41305;SDS011;27051;50.376;19.152;2022-08-25T03:33:18;20.40;;;7.00;;
41305;SDS011;27051;50.376;19.152;2022-08-25T03:35:45;18.32;;;7.37;;
41305;SDS011;27051;50.376;19.152;2022-08-25T03:38:12;15.50;;;7.67;;
41305;SDS011;27051;50.376;19.152;2022-08-25T03:40:38;17.25;;;7.67;;
41305;SDS011;27051;50.376;19.152;2022-08-25T03:43:05;21.65;;;7.45;;
41305;SDS011;27051;50.376;19.152;2022-08-25T03:45:31;17.57;;;7.33;;
41305;SDS011;27051;50.376;19.152;2022-08-25T03:47:58;21.80;;;8.28;;
41305;SDS011;27051;50.376;19.152;2022-08-25T03:50:25;17.87;;;7.72;;
41305;SDS011;27051;50.376;19.152;2022-08-25T03:52:52;18.70;;;7.40;;
41305;SDS011;27051;50.376;19.152;2022-08-25T03:55:22;19.95;;;7.12;;
41305;SDS011;27051;50.376;19.152;2022-08-25T03:57:51;16.02;;;7.53;;
41305;SDS011;27051;50.376;19.152;2022-08-25T04:00:20;15.55;;;7.17;;
41305;SDS011;27051;50.376;19.152;2022-08-25T04:02:48;20.88;;;7.05;;
41305;SDS011;27051;50.376;19.152;2022-08-25T04:05:14;16.55;;;7.58;;
41305;SDS011;27051;50.376;19.152;2022-08-25T04:07:50;18.67;;;7.15;;
41305;SDS011;27051;50.376;19.152;2022-08-25T04:10:17;14.53;;;6.53;;
41305;SDS011;27051;50.376;19.152;2022-08-25T04:12:43;17.90;;;7.92;;
41305;SDS011;27051;50.376;19.152;2022-08-25T04:15:10;14.85;;;6.90;;
41305;SDS011;27051;50.376;19.152;2022-08-25T04:17:37;12.35;;;6.97;;
41305;SDS011;27051;50.376;19.152;2022-08-25T04:20:06;17.23;;;7.47;;
41305;SDS011;27051;50.376;19.152;2022-08-25T04:22:35;16.27;;;8.13;;
41305;SDS011;27051;50.376;19.152;2022-08-25T04:25:04;20.23;;;7.53;;
41305;SDS011;27051;50.376;19.152;2022-08-25T04:27:32;21.23;;;7.83;;
41305;SDS011;27051;50.376;19.152;2022-08-25T04:29:59;18.40;;;7.42;;
41305;SDS011;27051;50.376;19.152;2022-08-25T04:32:26;15.80;;;7.42;;
41305;SDS011;27051;50.376;19.152;2022-08-25T04:34:52;19.80;;;8.10;;
41305;SDS011;27051;50.376;19.152;2022-08-25T04:37:19;17.75;;;6.35;;
41305;SDS011;27051;50.376;19.152;2022-08-25T04:39:45;13.80;;;7.15;;
41305;SDS011;27051;50.376;19.152;2022-08-25T04:42:12;16.70;;;7.15;;
41305;SDS011;27051;50.376;19.152;2022-08-25T04:44:39;19.00;;;7.50;;
41305;SDS011;27051;50.376;19.152;2022-08-25T04:47:05;17.67;;;6.70;;
41305;SDS011;27051;50.376;19.152;2022-08-25T04:49:32;18.73;;;6.65;;
41305;SDS011;27051;50.376;19.152;2022-08-25T04:51:58;19.60;;;6.58;;
41305;SDS011;27051;50.376;19.152;2022-08-25T04:54:25;16.17;;;6.67;;
41305;SDS011;27051;50.376;19.152;2022-08-25T04:56:52;20.97;;;6.65;;
41305;SDS011;27051;50.376;19.152;2022-08-25T04:59:19;20.23;;;6.40;;
41305;SDS011;27051;50.376;19.152;2022-08-25T05:01:45;16.15;;;6.37;;
41305;SDS011;27051;50.376;19.152;2022-08-25T05:04:16;15.88;;;6.30;;
41305;SDS011;27051;50.376;19.152;2022-08-25T05:06:41;20.52;;;6.60;;
41305;SDS011;27051;50.376;19.152;2022-08-25T05:09:08;18.57;;;6.20;;
41305;SDS011;27051;50.376;19.152;2022-08-25T05:11:36;16.10;;;5.80;;
41305;SDS011;27051;50.376;19.152;2022-08-25T05:14:03;16.15;;;6.28;;
41305;SDS011;27051;50.376;19.152;2022-08-25T05:16:30;18.48;;;5.95;;
41305;SDS011;27051;50.376;19.152;2022-08-25T05:18:57;21.90;;;5.70;;
41305;SDS011;27051;50.376;19.152;2022-08-25T05:21:25;21.05;;;6.10;;
41305;SDS011;27051;50.376;19.152;2022-08-25T05:23:54;22.98;;;6.65;;
41305;SDS011;27051;50.376;19.152;2022-08-25T05:26:23;18.87;;;7.03;;
41305;SDS011;27051;50.376;19.152;2022-08-25T05:28:53;18.12;;;6.08;;
41305;SDS011;27051;50.376;19.152;2022-08-25T05:31:21;18.75;;;6.00;;
41305;SDS011;27051;50.376;19.152;2022-08-25T05:33:50;18.70;;;5.97;;
41305;SDS011;27051;50.376;19.152;2022-08-25T05:36:19;20.10;;;5.65;;
41305;SDS011;27051;50.376;19.152;2022-08-25T05:38:49;23.80;;;6.28;;
41305;SDS011;27051;50.376;19.152;2022-08-25T05:41:17;21.37;;;6.20;;
41305;SDS011;27051;50.376;19.152;2022-08-25T05:43:47;21.48;;;6.47;;
41305;SDS011;27051;50.376;19.152;2022-08-25T05:46:15;15.90;;;5.83;;
41305;SDS011;27051;50.376;19.152;2022-08-25T05:48:43;23.40;;;6.28;;
41305;SDS011;27051;50.376;19.152;2022-08-25T05:51:11;21.12;;;6.20;;
41305;SDS011;27051;50.376;19.152;2022-08-25T05:53:40;21.85;;;5.83;;
41305;SDS011;27051;50.376;19.152;2022-08-25T05:56:10;20.92;;;5.87;;
41305;SDS011;27051;50.376;19.152;2022-08-25T05:58:37;20.97;;;6.42;;
41305;SDS011;27051;50.376;19.152;2022-08-25T06:01:06;21.87;;;5.15;;
41305;SDS011;27051;50.376;19.152;2022-08-25T06:03:33;23.30;;;6.42;;
41305;SDS011;27051;50.376;19.152;2022-08-25T06:06:06;24.45;;;6.25;;
41305;SDS011;27051;50.376;19.152;2022-08-25T06:08:34;22.95;;;6.78;;
41305;SDS011;27051;50.376;19.152;2022-08-25T06:11:00;27.60;;;7.10;;
41305;SDS011;27051;50.376;19.152;2022-08-25T06:13:27;23.80;;;6.58;;
41305;SDS011;27051;50.376;19.152;2022-08-25T06:15:57;22.17;;;6.92;;
41305;SDS011;27051;50.376;19.152;2022-08-25T06:18:24;20.88;;;5.75;;
41305;SDS011;27051;50.376;19.152;2022-08-25T06:20:51;17.23;;;6.33;;
41305;SDS011;27051;50.376;19.152;2022-08-25T06:23:18;24.18;;;5.67;;
41305;SDS011;27051;50.376;19.152;2022-08-25T06:25:49;20.05;;;6.10;;
41305;SDS011;27051;50.376;19.152;2022-08-25T06:28:18;20.80;;;5.70;;
41305;SDS011;27051;50.376;19.152;2022-08-25T06:30:46;21.37;;;5.50;;
41305;SDS011;27051;50.376;19.152;2022-08-25T06:33:13;17.77;;;5.03;;
41305;SDS011;27051;50.376;19.152;2022-08-25T06:35:41;22.50;;;5.50;;
41305;SDS011;27051;50.376;19.152;2022-08-25T06:38:09;21.42;;;5.53;;
41305;SDS011;27051;50.376;19.152;2022-08-25T06:40:37;18.82;;;5.60;;
41305;SDS011;27051;50.376;19.152;2022-08-25T06:43:04;23.15;;;5.53;;
41305;SDS011;27051;50.376;19.152;2022-08-25T06:45:30;25.02;;;6.75;;
41305;SDS011;27051;50.376;19.152;2022-08-25T06:47:57;27.20;;;6.45;;
41305;SDS011;27051;50.376;19.152;2022-08-25T06:50:24;26.33;;;5.87;;
41305;SDS011;27051;50.376;19.152;2022-08-25T06:52:50;24.43;;;5.17;;
41305;SDS011;27051;50.376;19.152;2022-08-25T06:55:17;21.68;;;5.45;;
41305;SDS011;27051;50.376;19.152;2022-08-25T06:57:44;23.40;;;6.03;;
41305;SDS011;27051;50.376;19.152;2022-08-25T07:00:11;29.32;;;6.22;;
41305;SDS011;27051;50.376;19.152;2022-08-25T07:02:38;28.70;;;7.12;;
41305;SDS011;27051;50.376;19.152;2022-08-25T07:05:05;22.35;;;5.60;;
41305;SDS011;27051;50.376;19.152;2022-08-25T07:07:32;26.57;;;6.28;;
41305;SDS011;27051;50.376;19.152;2022-08-25T07:09:59;25.30;;;6.15;;
41305;SDS011;27051;50.376;19.152;2022-08-25T07:12:26;23.77;;;5.95;;
41305;SDS011;27051;50.376;19.152;2022-08-25T07:14:52;27.95;;;6.70;;
41305;SDS011;27051;50.376;19.152;2022-08-25T07:17:20;20.57;;;5.25;;
41305;SDS011;27051;50.376;19.152;2022-08-25T07:19:47;22.48;;;6.00;;
41305;SDS011;27051;50.376;19.152;2022-08-25T07:22:15;22.25;;;6.28;;
41305;SDS011;27051;50.376;19.152;2022-08-25T07:24:41;18.90;;;5.47;;
41305;SDS011;27051;50.376;19.152;2022-08-25T07:27:08;28.50;;;6.35;;
41305;SDS011;27051;50.376;19.152;2022-08-25T07:29:35;23.65;;;6.10;;
41305;SDS011;27051;50.376;19.152;2022-08-25T07:32:02;28.40;;;5.80;;
41305;SDS011;27051;50.376;19.152;2022-08-25T07:34:30;27.50;;;6.78;;
41305;SDS011;27051;50.376;19.152;2022-08-25T07:36:57;20.15;;;5.15;;
41305;SDS011;27051;50.376;19.152;2022-08-25T07:39:25;23.22;;;5.30;;
41305;SDS011;27051;50.376;19.152;2022-08-25T07:41:52;27.85;;;6.75;;
41305;SDS011;27051;50.376;19.152;2022-08-25T07:44:22;22.65;;;6.33;;
41305;SDS011;27051;50.376;19.152;2022-08-25T07:46:50;25.52;;;6.40;;
41305;SDS011;27051;50.376;19.152;2022-08-25T07:49:17;21.15;;;5.75;;
41305;SDS011;27051;50.376;19.152;2022-08-25T07:51:45;31.17;;;6.05;;
41305;SDS011;27051;50.376;19.152;2022-08-25T07:54:12;23.07;;;6.17;;
41305;SDS011;27051;50.376;19.152;2022-08-25T07:56:39;25.88;;;7.80;;
41305;SDS011;27051;50.376;19.152;2022-08-25T07:59:06;21.12;;;6.12;;
41305;SDS011;27051;50.376;19.152;2022-08-25T08:01:33;28.02;;;7.25;;
41305;SDS011;27051;50.376;19.152;2022-08-25T08:04:00;24.40;;;6.03;;
41305;SDS011;27051;50.376;19.152;2022-08-25T08:06:26;25.52;;;7.28;;
41305;SDS011;27051;50.376;19.152;2022-08-25T08:08:53;23.42;;;7.05;;
41305;SDS011;27051;50.376;19.152;2022-08-25T08:11:22;27.05;;;7.10;;
41305;SDS011;27051;50.376;19.152;2022-08-25T08:13:53;24.10;;;6.10;;
41305;SDS011;27051;50.376;19.152;2022-08-25T08:16:24;28.83;;;6.42;;
41305;SDS011;27051;50.376;19.152;2022-08-25T08:18:53;35.92;;;7.60;;
41305;SDS011;27051;50.376;19.152;2022-08-25T08:21:25;25.02;;;5.95;;
41305;SDS011;27051;50.376;19.152;2022-08-25T08:23:54;28.75;;;6.50;;
41305;SDS011;27051;50.376;19.152;2022-08-25T08:26:22;28.35;;;7.20;;
41305;SDS011;27051;50.376;19.152;2022-08-25T08:28:50;41.73;;;7.08;;
41305;SDS011;27051;50.376;19.152;2022-08-25T08:31:18;28.38;;;7.10;;
41305;SDS011;27051;50.376;19.152;2022-08-25T08:33:48;31.82;;;6.55;;
41305;SDS011;27051;50.376;19.152;2022-08-25T08:36:16;35.63;;;6.78;;
41305;SDS011;27051;50.376;19.152;2022-08-25T08:38:44;27.58;;;7.08;;
41305;SDS011;27051;50.376;19.152;2022-08-25T08:53:51;26.15;;;6.20;;
41305;SDS011;27051;50.376;19.152;2022-08-25T08:55:48;28.50;;;6.85;;
41305;SDS011;27051;50.376;19.152;2022-08-25T08:58:33;23.73;;;6.78;;
41305;SDS011;27051;50.376;19.152;2022-08-25T09:01:15;34.45;;;7.28;;
41305;SDS011;27051;50.376;19.152;2022-08-25T09:03:46;27.98;;;5.90;;
41305;SDS011;27051;50.376;19.152;2022-08-25T09:06:23;31.37;;;6.62;;
41305;SDS011;27051;50.376;19.152;2022-08-25T09:08:56;25.95;;;5.90;;
41305;SDS011;27051;50.376;19.152;2022-08-25T09:14:48;26.40;;;6.62;;
41305;SDS011;27051;50.376;19.152;2022-08-25T09:20:45;27.65;;;6.37;;
41305;SDS011;27051;50.376;19.152;2022-08-25T09:23:53;31.93;;;7.50;;
41305;SDS011;27051;50.376;19.152;2022-08-25T09:29:23;32.00;;;6.28;;
41305;SDS011;27051;50.376;19.152;2022-08-25T09:31:55;27.70;;;5.72;;
41305;SDS011;27051;50.376;19.152;2022-08-25T09:34:24;29.92;;;5.78;;
41305;SDS011;27051;50.376;19.152;2022-08-25T09:36:55;27.62;;;6.47;;
41305;SDS011;27051;50.376;19.152;2022-08-25T09:39:22;24.63;;;6.35;;
41305;SDS011;27051;50.376;19.152;2022-08-25T09:41:50;29.95;;;6.87;;
41305;SDS011;27051;50.376;19.152;2022-08-25T09:44:21;28.90;;;6.62;;
41305;SDS011;27051;50.376;19.152;2022-08-25T09:49:35;26.82;;;6.87;;
41305;SDS011;27051;50.376;19.152;2022-08-25T10:03:00;25.92;;;5.90;;
41305;SDS011;27051;50.376;19.152;2022-08-25T10:11:28;23.25;;;6.37;;
41305;SDS011;27051;50.376;19.152;2022-08-25T10:14:03;27.75;;;7.22;;
41305;SDS011;27051;50.376;19.152;2022-08-25T10:16:39;17.57;;;5.40;;
41305;SDS011;27051;50.376;19.152;2022-08-25T10:19:10;24.70;;;6.72;;
41305;SDS011;27051;50.376;19.152;2022-08-25T10:21:41;29.60;;;6.60;;
41305;SDS011;27051;50.376;19.152;2022-08-25T10:24:09;24.95;;;6.50;;
41305;SDS011;27051;50.376;19.152;2022-08-25T10:30:03;20.80;;;6.37;;
41305;SDS011;27051;50.376;19.152;2022-08-25T10:32:48;24.10;;;6.12;;
41305;SDS011;27051;50.376;19.152;2022-08-25T10:35:56;21.05;;;5.95;;
41305;SDS011;27051;50.376;19.152;2022-08-25T10:38:43;22.93;;;6.30;;
41305;SDS011;27051;50.376;19.152;2022-08-25T10:47:24;24.98;;;6.25;;
41305;SDS011;27051;50.376;19.152;2022-08-25T10:49:51;21.65;;;5.87;;
41305;SDS011;27051;50.376;19.152;2022-08-25T10:55:09;26.60;;;6.25;;
41305;SDS011;27051;50.376;19.152;2022-08-25T11:00:50;25.75;;;6.53;;
41305;SDS011;27051;50.376;19.152;2022-08-25T11:03:29;23.32;;;6.35;;
41305;SDS011;27051;50.376;19.152;2022-08-25T11:06:12;22.98;;;5.97;;
41305;SDS011;27051;50.376;19.152;2022-08-25T11:14:04;26.97;;;6.58;;
41305;SDS011;27051;50.376;19.152;2022-08-25T11:16:39;18.55;;;5.70;;
41305;SDS011;27051;50.376;19.152;2022-08-25T11:19:37;35.68;;;7.20;;
41305;SDS011;27051;50.376;19.152;2022-08-25T11:22:11;21.07;;;6.95;;
41305;SDS011;27051;50.376;19.152;2022-08-25T11:25:18;22.55;;;5.95;;
41305;SDS011;27051;50.376;19.152;2022-08-25T11:28:10;21.17;;;6.55;;
41305;SDS011;27051;50.376;19.152;2022-08-25T11:30:43;25.20;;;6.67;;
41305;SDS011;27051;50.376;19.152;2022-08-25T11:33:15;25.37;;;7.85;;
41305;SDS011;27051;50.376;19.152;2022-08-25T11:35:41;24.25;;;6.65;;
41305;SDS011;27051;50.376;19.152;2022-08-25T11:43:51;22.40;;;7.80;;
41305;SDS011;27051;50.376;19.152;2022-08-25T12:01:09;20.92;;;6.35;;
41305;SDS011;27051;50.376;19.152;2022-08-25T12:06:28;20.20;;;6.30;;
41305;SDS011;27051;50.376;19.152;2022-08-25T12:30:21;19.23;;;7.22;;
41305;SDS011;27051;50.376;19.152;2022-08-25T12:33:25;18.55;;;7.08;;
41305;SDS011;27051;50.376;19.152;2022-08-25T12:36:10;18.40;;;7.20;;
41305;SDS011;27051;50.376;19.152;2022-08-25T12:38:54;18.35;;;6.67;;
41305;SDS011;27051;50.376;19.152;2022-08-25T12:47:06;15.32;;;7.20;;
41305;SDS011;27051;50.376;19.152;2022-08-25T12:49:46;17.40;;;7.30;;
41305;SDS011;27051;50.376;19.152;2022-08-25T12:52:20;19.25;;;8.00;;
41305;SDS011;27051;50.376;19.152;2022-08-25T12:57:30;17.32;;;7.62;;
41305;SDS011;27051;50.376;19.152;2022-08-25T13:00:13;19.70;;;7.90;;
41305;SDS011;27051;50.376;19.152;2022-08-25T13:05:54;15.10;;;7.90;;
41305;SDS011;27051;50.376;19.152;2022-08-25T13:14:32;16.27;;;7.42;;
41305;SDS011;27051;50.376;19.152;2022-08-25T13:17:03;26.85;;;7.78;;
41305;SDS011;27051;50.376;19.152;2022-08-25T13:19:31;19.00;;;7.42;;
41305;SDS011;27051;50.376;19.152;2022-08-25T13:21:57;17.20;;;8.38;;
41305;SDS011;27051;50.376;19.152;2022-08-25T13:24:32;19.52;;;8.63;;
41305;SDS011;27051;50.376;19.152;2022-08-25T13:27:03;20.68;;;7.40;;
41305;SDS011;27051;50.376;19.152;2022-08-25T13:29:34;18.73;;;9.45;;
41305;SDS011;27051;50.376;19.152;2022-08-25T13:32:06;19.80;;;8.15;;
41305;SDS011;27051;50.376;19.152;2022-08-25T13:34:37;18.90;;;8.23;;
41305;SDS011;27051;50.376;19.152;2022-08-25T13:37:08;19.55;;;8.15;;
41305;SDS011;27051;50.376;19.152;2022-08-25T13:39:38;20.88;;;7.50;;
41305;SDS011;27051;50.376;19.152;2022-08-25T13:42:05;16.30;;;8.10;;
41305;SDS011;27051;50.376;19.152;2022-08-25T13:44:38;18.48;;;7.47;;
41305;SDS011;27051;50.376;19.152;2022-08-25T13:47:07;17.27;;;8.50;;
41305;SDS011;27051;50.376;19.152;2022-08-25T13:49:41;17.37;;;7.67;;
41305;SDS011;27051;50.376;19.152;2022-08-25T13:52:25;17.98;;;7.25;;
41305;SDS011;27051;50.376;19.152;2022-08-25T13:54:59;18.23;;;7.40;;
41305;SDS011;27051;50.376;19.152;2022-08-25T13:57:27;19.85;;;6.83;;
41305;SDS011;27051;50.376;19.152;2022-08-25T14:00:08;19.15;;;7.85;;
41305;SDS011;27051;50.376;19.152;2022-08-25T14:02:41;19.17;;;8.25;;
41305;SDS011;27051;50.376;19.152;2022-08-25T14:05:15;16.37;;;7.45;;
41305;SDS011;27051;50.376;19.152;2022-08-25T14:07:53;20.82;;;7.33;;
41305;SDS011;27051;50.376;19.152;2022-08-25T14:10:41;25.12;;;7.45;;
41305;SDS011;27051;50.376;19.152;2022-08-25T14:15:54;17.12;;;6.97;;
41305;SDS011;27051;50.376;19.152;2022-08-25T14:18:28;16.52;;;6.85;;
41305;SDS011;27051;50.376;19.152;2022-08-25T14:20:57;26.65;;;7.80;;
41305;SDS011;27051;50.376;19.152;2022-08-25T14:23:26;15.65;;;6.78;;
41305;SDS011;27051;50.376;19.152;2022-08-25T14:25:56;25.08;;;6.47;;
41305;SDS011;27051;50.376;19.152;2022-08-25T14:28:24;16.50;;;6.45;;
41305;SDS011;27051;50.376;19.152;2022-08-25T14:30:54;13.38;;;6.12;;
41305;SDS011;27051;50.376;19.152;2022-08-25T14:33:27;17.85;;;5.97;;
41305;SDS011;27051;50.376;19.152;2022-08-25T14:35:58;15.25;;;6.08;;
41305;SDS011;27051;50.376;19.152;2022-08-25T14:38:26;19.82;;;5.28;;
41305;SDS011;27051;50.376;19.152;2022-08-25T14:40:53;20.85;;;6.12;;
41305;SDS011;27051;50.376;19.152;2022-08-25T14:43:20;12.28;;;4.97;;
41305;SDS011;27051;50.376;19.152;2022-08-25T14:45:47;18.90;;;5.53;;
41305;SDS011;27051;50.376;19.152;2022-08-25T14:48:28;20.72;;;5.83;;
41305;SDS011;27051;50.376;19.152;2022-08-25T14:50:59;15.75;;;4.90;;
41305;SDS011;27051;50.376;19.152;2022-08-25T14:53:28;14.28;;;4.55;;
41305;SDS011;27051;50.376;19.152;2022-08-25T14:55:55;11.70;;;5.22;;
41305;SDS011;27051;50.376;19.152;2022-08-25T14:58:21;15.60;;;5.03;;
41305;SDS011;27051;50.376;19.152;2022-08-25T15:00:49;19.27;;;5.70;;
41305;SDS011;27051;50.376;19.152;2022-08-25T15:03:19;18.42;;;5.55;;
41305;SDS011;27051;50.376;19.152;2022-08-25T15:05:49;22.55;;;4.80;;
41305;SDS011;27051;50.376;19.152;2022-08-25T15:08:16;13.45;;;4.85;;
41305;SDS011;27051;50.376;19.152;2022-08-25T15:10:42;22.87;;;5.00;;
41305;SDS011;27051;50.376;19.152;2022-08-25T15:13:09;19.77;;;4.92;;
41305;SDS011;27051;50.376;19.152;2022-08-25T15:15:37;17.80;;;5.03;;
41305;SDS011;27051;50.376;19.152;2022-08-25T15:18:08;15.48;;;4.58;;
41305;SDS011;27051;50.376;19.152;2022-08-25T15:20:35;20.75;;;5.70;;
41305;SDS011;27051;50.376;19.152;2022-08-25T15:23:02;22.82;;;5.22;;
41305;SDS011;27051;50.376;19.152;2022-08-25T15:25:29;25.32;;;6.05;;
41305;SDS011;27051;50.376;19.152;2022-08-25T15:27:55;23.00;;;6.00;;
41305;SDS011;27051;50.376;19.152;2022-08-25T15:30:22;22.48;;;5.03;;
41305;SDS011;27051;50.376;19.152;2022-08-25T15:32:49;19.37;;;5.12;;
41305;SDS011;27051;50.376;19.152;2022-08-25T15:35:15;18.17;;;5.65;;
41305;SDS011;27051;50.376;19.152;2022-08-25T15:37:42;20.25;;;4.95;;
41305;SDS011;27051;50.376;19.152;2022-08-25T15:40:09;24.67;;;6.05;;
41305;SDS011;27051;50.376;19.152;2022-08-25T15:42:36;23.90;;;5.42;;
41305;SDS011;27051;50.376;19.152;2022-08-25T15:45:03;16.60;;;4.33;;
41305;SDS011;27051;50.376;19.152;2022-08-25T15:47:31;17.62;;;4.45;;
41305;SDS011;27051;50.376;19.152;2022-08-25T15:50:05;14.65;;;4.95;;
41305;SDS011;27051;50.376;19.152;2022-08-25T15:52:36;13.03;;;4.47;;
41305;SDS011;27051;50.376;19.152;2022-08-25T15:55:03;16.50;;;4.75;;
41305;SDS011;27051;50.376;19.152;2022-08-25T15:57:30;24.98;;;5.45;;
41305;SDS011;27051;50.376;19.152;2022-08-25T15:59:58;17.62;;;4.70;;
41305;SDS011;27051;50.376;19.152;2022-08-25T16:02:24;15.63;;;4.92;;
41305;SDS011;27051;50.376;19.152;2022-08-25T16:04:52;15.58;;;5.08;;
41305;SDS011;27051;50.376;19.152;2022-08-25T16:07:19;15.95;;;4.60;;
41305;SDS011;27051;50.376;19.152;2022-08-25T16:09:46;15.03;;;4.90;;
41305;SDS011;27051;50.376;19.152;2022-08-25T16:12:12;13.20;;;4.80;;
41305;SDS011;27051;50.376;19.152;2022-08-25T16:14:39;18.37;;;5.00;;
41305;SDS011;27051;50.376;19.152;2022-08-25T16:17:05;20.92;;;5.65;;
41305;SDS011;27051;50.376;19.152;2022-08-25T16:19:32;20.90;;;4.78;;
41305;SDS011;27051;50.376;19.152;2022-08-25T16:21:59;17.70;;;5.15;;
41305;SDS011;27051;50.376;19.152;2022-08-25T16:24:26;18.62;;;5.20;;
41305;SDS011;27051;50.376;19.152;2022-08-25T16:26:53;17.95;;;5.03;;
41305;SDS011;27051;50.376;19.152;2022-08-25T16:29:20;13.93;;;4.80;;
41305;SDS011;27051;50.376;19.152;2022-08-25T16:31:47;21.55;;;5.58;;
41305;SDS011;27051;50.376;19.152;2022-08-25T16:34:13;18.57;;;4.75;;
41305;SDS011;27051;50.376;19.152;2022-08-25T16:36:40;16.62;;;4.85;;
41305;SDS011;27051;50.376;19.152;2022-08-25T16:39:07;18.70;;;4.65;;
41305;SDS011;27051;50.376;19.152;2022-08-25T16:41:33;18.00;;;4.75;;
41305;SDS011;27051;50.376;19.152;2022-08-25T16:44:01;16.93;;;5.12;;
41305;SDS011;27051;50.376;19.152;2022-08-25T16:46:30;20.17;;;5.23;;
41305;SDS011;27051;50.376;19.152;2022-08-25T16:48:58;15.23;;;4.67;;
41305;SDS011;27051;50.376;19.152;2022-08-25T16:51:27;17.23;;;5.43;;